createdAt,value
2022-10-31T06:15:42.587Z,8.55
2022-10-31T06:25:42.714Z,8.30
2022-10-31T06:35:42.668Z,7.93
2022-10-31T06:45:42.729Z,8.78
2022-10-31T06:55:42.726Z,8.41
2022-10-31T07:05:42.637Z,8.60
2022-10-31T07:15:42.758Z,8.73
2022-10-31T07:25:42.701Z,9.22
2022-10-31T07:35:42.703Z,9.52
2022-10-31T07:45:42.685Z,10.45
2022-10-31T07:55:42.661Z,10.38
2022-10-31T08:05:42.594Z,10.61
2022-10-31T08:15:42.730Z,11.31
2022-10-31T08:25:42.912Z,12.37
2022-10-31T08:35:42.814Z,14.06
2022-10-31T08:45:43.014Z,14.27
2022-10-31T08:55:43.184Z,15.23
2022-10-31T09:05:43.149Z,14.45
2022-10-31T09:15:43.178Z,14.83
2022-10-31T09:25:47.577Z,15.31
2022-10-31T09:35:43.077Z,15.58
2022-10-31T09:45:43.211Z,16.89
2022-10-31T09:55:43.114Z,15.91
2022-10-31T10:05:43.222Z,15.53
2022-10-31T10:15:43.222Z,15.28
2022-10-31T10:25:43.137Z,15.39
2022-10-31T10:35:43.206Z,15.24
2022-10-31T10:45:43.262Z,15.33
2022-10-31T10:55:43.146Z,15.39
2022-10-31T11:05:43.179Z,15.74
2022-10-31T11:15:43.157Z,16.05
2022-10-31T11:25:43.202Z,15.84
2022-10-31T11:35:43.251Z,15.78
2022-10-31T11:45:43.301Z,15.71
2022-10-31T11:55:43.210Z,15.99
2022-10-31T12:05:43.156Z,16.36
2022-10-31T12:15:43.107Z,16.57
2022-10-31T12:25:43.262Z,16.30
2022-10-31T12:35:43.421Z,16.36
2022-10-31T12:45:43.300Z,16.39
2022-10-31T12:55:43.178Z,16.42
2022-10-31T13:05:43.246Z,16.08
2022-10-31T13:15:43.244Z,15.67
2022-10-31T13:25:43.213Z,15.39
2022-10-31T13:35:43.285Z,15.10
2022-10-31T13:45:43.195Z,15.16
2022-10-31T13:55:43.228Z,14.96
2022-10-31T14:05:43.347Z,14.81
2022-10-31T14:15:43.606Z,14.62
2022-10-31T14:25:43.340Z,14.50
2022-10-31T14:35:43.424Z,14.33
2022-10-31T14:45:43.387Z,14.19
2022-10-31T14:55:43.307Z,14.12
2022-10-31T15:05:43.378Z,14.02
2022-10-31T15:15:45.925Z,13.94
2022-10-31T15:25:43.413Z,13.83
2022-10-31T15:35:43.367Z,13.73
2022-10-31T15:45:43.401Z,13.63
2022-10-31T15:55:43.518Z,13.46
2022-10-31T16:05:43.338Z,13.37
2022-10-31T16:15:43.443Z,13.46
2022-10-31T16:25:43.515Z,13.46
2022-10-31T16:35:43.500Z,13.49
2022-10-31T16:45:43.438Z,13.53
2022-10-31T16:55:43.497Z,13.60
2022-10-31T17:05:43.516Z,13.60
2022-10-31T17:15:43.458Z,13.57
2022-10-31T17:25:43.517Z,13.47
2022-10-31T17:35:43.442Z,13.44
2022-10-31T17:45:43.525Z,13.54
2022-10-31T17:55:43.477Z,13.55
2022-10-31T18:05:43.443Z,13.54
2022-10-31T18:15:43.527Z,13.56
2022-10-31T18:25:43.607Z,13.40
2022-10-31T18:35:43.652Z,13.36
2022-10-31T18:45:46.954Z,13.37
2022-10-31T18:55:47.253Z,13.42
2022-10-31T19:05:43.629Z,13.41
2022-10-31T19:15:43.706Z,13.41
